Nearby METAR Reports

 

K1A5 - Macon/Franklin, North Carolina, USA
Distance from station: WSW 16mi, 25km
Updated: Mon, 16-Jul-2018 2:15am EDT
Overcast
Overcast
 Wind from calm
Wind: Calm
Temperature: 70°F , 21°C
Dew Point: 68°F , 20°C
Humidity: 94%
Barometer: 30.13 inHg , 1020.3 hPa
Clouds: Overcast
Visibility: 7 miles , 11 km
Cloud details: Partly cloudy 300 ft
Mostly cloudy 700 ft
Overcast 1700 ft
2018/07/16 06:15 K1A5 160615Z AUTO 00000KT 7SM SCT003 BKN007 OVC017 21/20 A3013 RMK AO2 T02100203
KAVL - Asheville, North Carolina, USA
Distance from station: ENE 36mi, 59km
Updated: Mon, 16-Jul-2018 1:54am EDT
Overcast
Overcast
 Wind from NNW
Wind: NNW 6 mph , 9 km/h
Temperature: 73°F , 23°C
Dew Point: 70°F , 21°C
Humidity: 89%
Barometer: 30.14 inHg , 1020.7 hPa
Clouds: Overcast
Visibility: 10 miles , 16 km
Cloud details: Few Clouds 800 ft
Partly cloudy 8000 ft
Overcast 10000 ft
2018/07/16 05:54 KAVL 160554Z AUTO 33005KT 10SM FEW008 SCT080 OVC100 23/21 A3014 RMK AO2 SLP176 60000 T02280211 10261 20228 58000
 
KRHP - Andrews, North Carolina, USA
Distance from station: WSW 40mi, 64km
Updated: Mon, 16-Jul-2018 2:15am EDT
Mostly cloudy
Mostly cloudy
 Wind from calm
Wind: Calm
Temperature: 70°F , 21°C
Dew Point: 70°F , 21°C
Humidity: 100%
Barometer: 30.11 inHg , 1019.6 hPa
Clouds: Mostly cloudy
Visibility: 7 miles , 11 km
Cloud details: Mostly cloudy 300 ft
2018/07/16 06:15 KRHP 160615Z AUTO 00000KT 7SM BKN003 21/21 A3011 RMK AO2 T02100210
KLQK - Pickens, South Carolina, USA
Distance from station: SE 42mi, 68km
Updated: Mon, 16-Jul-2018 2:15am EDT
Mist, Mostly cloudy
Mist, Mostly cloudy
 Wind from calm
Wind: Calm
Temperature: 73°F , 23°C
Dew Point: 73°F , 23°C
Humidity: 100%
Barometer: 30.06 inHg , 1017.9 hPa
Summary: Mist
Clouds: Mostly cloudy
Visibility: 5 miles , 8 km
Cloud details: Mostly cloudy 4100 ft
2018/07/16 06:15 KLQK 160615Z AUTO 00000KT 5SM BR BKN041 23/23 A3006 RMK AO2 T02260226
 
KCEU - Clemson, South Carolina, USA
Distance from station: SSE 46mi, 75km
Updated: Mon, 16-Jul-2018 1:54am EDT
Mostly cloudy
Mostly cloudy
 Wind from W
Wind: W 5 mph , 7 km/h
Temperature: 75°F , 24°C
Dew Point: 72°F , 22°C
Humidity: 89%
Barometer: 30.08 inHg , 1018.6 hPa
Clouds: Mostly cloudy
Visibility: 10 miles , 16 km
Cloud details: Mostly cloudy 4300 ft
2018/07/16 05:54 KCEU 160554Z AUTO 27004KT 10SM BKN043 24/22 A3008 RMK AO2 SLP173 T02440222 10283 20244 55003
KTOC - Toccoa, Georgia, USA
Distance from station: S 49mi, 79km
Updated: Mon, 16-Jul-2018 2:15am EDT
Clear
Clear
 Wind from calm
Wind: Calm
Temperature: 79°F , 26°C
Dew Point: 75°F , 24°C
Humidity: 89%
Barometer: 30.07 inHg , 1018.3 hPa
Clouds: Clear
Visibility: 7 miles , 11 km
2018/07/16 06:15 KTOC 160615Z AUTO 00000KT 7SM CLR 26/24 A3007 RMK AO2 T02550243